Aeroporto :
LOGIN :

Iscrizione | Disclaimer

   EN    FR    IT 

 










Sommario :    VFR   VFR Marginale   IFR   IFR Intensivo   IFR Molto Intensivo
Visibilità : 
Base nubi : 
>= 8 km
>= 3000ft
5 / 8 km
1000 / 3000 ft
1500m / 5 km
500 / 1000 ft
800 / 1500m
200 / 500 ft
< 800m
< 200 ft
Simboli :   Temporali  Nebbia  Neve Forte  Precipitazioni Forti  Vento > 20 kt
SIGMETs :   Varie  Temporali  Ghiacco  Turbolenza  Onda orograficha  Ceneri Vulcaniche







- Altitudine del aeroporto : 13 ft
- Codice IATA : OST


EBOS - Oostend bruges Int.

ULTIMO METAR :
  • 181750Z 04011KT CAVOK 15/07 Q1023 NOSIG

METARs OBSOLETI :
  • 181720Z 03011KT CAVOK 16/07 Q1023 NOSIG
  • 181650Z 03012KT CAVOK 16/07 Q1023 NOSIG
  • 181620Z 02011KT CAVOK 19/06 Q1023 NOSIG
  • 181550Z 03012KT CAVOK 20/06 Q1023 NOSIG
  • 181520Z 03012KT CAVOK 20/06 Q1023 NOSIG

TAF TAF EBOS
Valido dal 18 a 18 ore il 20 a 00 ore UTC


181700Z 1818/1924 08009KT CAVOK
TEMPO 1912/1918 02011KT
Nessun NOTAM noto per questo aeroporto.



MetMap, La meteo Aeronautica in un colpo d'occhio ! - Copyright ORBIFLY Dicembre 2007 - Disclaimer

ORBIFLY MET'MAP TEAM :

Programmazione e sviluppo : Alexandra Zaïnal
Concezione e sviluppo : Baudouin d'Aumeries
Co-Programmazione e sviluppo : Marc-Olivier Méhu
Supporto tecnico e logistico : Manuel Goepfert
Aiuto per la traduzione : Arnaldo La Scala

Contatto : metmap@orbifly.com




FONTI E CREDITI :

   NOAA